createdAt,value
2019-03-13T00:00:53.481Z,8.7
2019-03-13T00:01:54.164Z,8.7
2019-03-13T00:02:54.821Z,8.7
2019-03-13T00:03:55.491Z,8.7
2019-03-13T00:04:56.159Z,8.7
2019-03-13T00:05:56.831Z,8.7
2019-03-13T00:06:57.499Z,8.7
2019-03-13T00:07:58.184Z,8.7
2019-03-13T00:08:58.834Z,8.6
2019-03-13T00:09:59.502Z,8.7
2019-03-13T00:11:00.170Z,8.7
2019-03-13T00:12:00.842Z,8.7
2019-03-13T00:13:01.510Z,8.7
2019-03-13T00:14:02.179Z,8.7
2019-03-13T00:15:02.847Z,8.7
2019-03-13T00:16:03.517Z,8.6
2019-03-13T00:17:04.186Z,8.7
2019-03-13T00:18:04.853Z,8.7
2019-03-13T00:19:05.524Z,8.7
2019-03-13T00:20:06.197Z,8.7
2019-03-13T00:21:06.863Z,8.7
2019-03-13T00:22:07.579Z,8.6
2019-03-13T00:23:08.248Z,8.6
2019-03-13T00:24:08.915Z,8.7
2019-03-13T00:25:09.583Z,8.6
2019-03-13T00:26:10.252Z,8.5
2019-03-13T00:27:10.921Z,8.6
2019-03-13T00:28:11.590Z,8.6
2019-03-13T00:29:12.261Z,8.5
2019-03-13T00:30:12.927Z,8.4
2019-03-13T00:31:13.599Z,8.5
2019-03-13T00:32:14.270Z,8.5
2019-03-13T00:33:14.935Z,8.4
2019-03-13T00:34:15.604Z,8.5
2019-03-13T00:35:16.274Z,8.4
2019-03-13T00:36:16.989Z,8.4
2019-03-13T00:37:17.659Z,8.5
2019-03-13T00:38:18.330Z,8.4
2019-03-13T00:39:19.002Z,8.4
2019-03-13T00:40:19.714Z,8.4
2019-03-13T00:41:20.404Z,8.4
2019-03-13T00:42:21.097Z,8.4
2019-03-13T00:43:21.765Z,8.4
2019-03-13T00:44:22.435Z,8.3
2019-03-13T00:45:23.103Z,8.4
2019-03-13T00:46:23.772Z,8.4
2019-03-13T00:47:24.441Z,8.4
2019-03-13T00:48:25.108Z,8.4
2019-03-13T00:49:25.778Z,8.3
2019-03-13T00:50:26.447Z,8.3
2019-03-13T00:51:27.115Z,8.4
2019-03-13T00:52:27.783Z,8.3
2019-03-13T00:53:28.450Z,8.4
2019-03-13T00:54:29.120Z,8.3
2019-03-13T00:55:29.790Z,8.4
2019-03-13T00:56:30.460Z,8.3
2019-03-13T00:57:31.127Z,8.4
2019-03-13T00:58:31.839Z,8.4
2019-03-13T00:59:32.504Z,8.3
2019-03-13T01:00:33.172Z,8.4
2019-03-13T01:01:33.842Z,8.4
2019-03-13T01:02:34.510Z,8.2
2019-03-13T01:03:35.178Z,8.3
2019-03-13T01:04:35.848Z,8.4
2019-03-13T01:05:36.519Z,8.3
2019-03-13T01:06:37.234Z,8.4
2019-03-13T01:07:37.903Z,8.4
2019-03-13T01:08:38.571Z,8.3
2019-03-13T01:09:39.241Z,8.4
2019-03-13T01:10:39.911Z,8.4
2019-03-13T01:11:40.582Z,8.3
2019-03-13T01:12:41.247Z,8.4
2019-03-13T01:13:41.964Z,8.3
2019-03-13T01:14:42.631Z,8.4
2019-03-13T01:15:43.301Z,8.4
2019-03-13T01:16:43.968Z,8.5
2019-03-13T01:17:44.640Z,8.4
2019-03-13T01:18:45.312Z,8.5
2019-03-13T01:19:45.978Z,8.4
2019-03-13T01:20:46.647Z,8.4
2019-03-13T01:21:47.315Z,8.4
2019-03-13T01:22:47.992Z,8.4
2019-03-13T01:23:48.654Z,8.4
2019-03-13T01:24:49.324Z,8.5
2019-03-13T01:25:49.992Z,8.5
2019-03-13T01:26:50.661Z,8.5
2019-03-13T01:27:51.378Z,8.4
2019-03-13T01:28:52.047Z,8.5
2019-03-13T01:29:52.717Z,8.5
2019-03-13T01:30:53.385Z,8.4
2019-03-13T01:31:54.055Z,8.5
2019-03-13T01:32:54.725Z,8.5
2019-03-13T01:33:55.394Z,8.4
2019-03-13T01:34:56.063Z,8.4
2019-03-13T01:35:56.731Z,8.4
2019-03-13T01:36:57.449Z,8.4
2019-03-13T01:37:58.165Z,8.3
2019-03-13T01:38:58.833Z,8.3
2019-03-13T01:39:59.503Z,8.3
2019-03-13T01:41:00.172Z,8.2
2019-03-13T01:42:00.841Z,8.3
2019-03-13T01:43:01.509Z,8.1
2019-03-13T01:44:02.226Z,8.1
2019-03-13T01:45:02.898Z,8.1
2019-03-13T01:46:03.567Z,7.9
2019-03-13T01:47:04.335Z,7.9
2019-03-13T01:48:04.962Z,7.8
2019-03-13T01:49:05.634Z,7.8
2019-03-13T01:50:06.298Z,7.8
2019-03-13T01:51:06.967Z,7.8
2019-03-13T01:52:07.636Z,7.8
2019-03-13T01:53:08.309Z,7.7
2019-03-13T01:54:08.973Z,7.7
2019-03-13T01:55:09.641Z,7.7
2019-03-13T01:56:10.320Z,7.5
2019-03-13T01:57:11.026Z,7.6
2019-03-13T01:58:11.694Z,7.5
2019-03-13T01:59:12.362Z,7.5
2019-03-13T02:00:13.030Z,7.5
2019-03-13T02:01:13.699Z,7.4
2019-03-13T02:02:14.369Z,7.3
2019-03-13T02:03:15.037Z,7.3
2019-03-13T02:04:15.709Z,7.2
2019-03-13T02:05:16.373Z,7.2
2019-03-13T02:06:17.043Z,7.2
2019-03-13T02:07:17.715Z,7.2
2019-03-13T02:08:18.381Z,7.2
2019-03-13T02:09:19.050Z,7.1
2019-03-13T02:10:19.718Z,7.0
2019-03-13T02:11:20.386Z,7.2
2019-03-13T02:12:21.054Z,7.1
2019-03-13T02:13:21.720Z,7.1
2019-03-13T02:14:22.392Z,7.0
2019-03-13T02:15:23.058Z,7.1
2019-03-13T02:16:23.724Z,7.1
2019-03-13T02:17:24.392Z,7.1
2019-03-13T02:18:25.061Z,7.0
2019-03-13T02:19:25.728Z,7.1
2019-03-13T02:20:26.394Z,7.1
2019-03-13T02:21:27.064Z,7.1
2019-03-13T02:22:27.732Z,7.1
2019-03-13T02:23:28.400Z,7.1
2019-03-13T02:24:29.069Z,7.0
2019-03-13T02:25:29.738Z,6.9
2019-03-13T02:26:30.406Z,6.9
2019-03-13T02:27:31.075Z,6.9
2019-03-13T02:28:31.745Z,6.9
2019-03-13T02:29:32.408Z,6.9
2019-03-13T02:30:33.117Z,6.8
2019-03-13T02:31:33.790Z,6.8
2019-03-13T02:32:34.454Z,6.8
2019-03-13T02:33:35.121Z,6.8
2019-03-13T02:34:35.792Z,6.8
2019-03-13T02:35:36.458Z,6.7
2019-03-13T02:36:37.124Z,6.8
2019-03-13T02:37:37.792Z,6.8
2019-03-13T02:38:38.462Z,6.8
2019-03-13T02:39:39.130Z,6.8
2019-03-13T02:40:39.826Z,6.7
2019-03-13T02:41:40.511Z,6.8
2019-03-13T02:42:41.183Z,6.7
2019-03-13T02:43:41.847Z,6.7
2019-03-13T02:44:42.514Z,6.7
2019-03-13T02:45:43.184Z,6.6
2019-03-13T02:46:43.852Z,6.6
2019-03-13T02:47:44.520Z,6.5
2019-03-13T02:48:45.187Z,6.3
2019-03-13T02:49:45.854Z,6.4
2019-03-13T02:50:46.523Z,6.4
2019-03-13T02:51:47.191Z,6.3
2019-03-13T02:52:47.858Z,6.2
2019-03-13T02:53:48.534Z,6.3
2019-03-13T02:54:49.193Z,6.3
2019-03-13T02:55:49.862Z,6.2
2019-03-13T02:56:50.531Z,6.2
2019-03-13T02:57:51.197Z,6.1
2019-03-13T02:58:51.868Z,6.2
2019-03-13T02:59:52.531Z,6.2
2019-03-13T03:00:53.207Z,6.1
2019-03-13T03:01:53.866Z,6.1
2019-03-13T03:02:54.534Z,6.1
2019-03-13T03:03:55.203Z,5.9
2019-03-13T03:04:55.868Z,6.0
2019-03-13T03:05:56.539Z,5.9
2019-03-13T03:06:57.254Z,5.9
2019-03-13T03:07:57.969Z,6.0
2019-03-13T03:08:58.637Z,5.9
2019-03-13T03:09:59.307Z,5.9
2019-03-13T03:11:00.033Z,5.8
2019-03-13T03:12:00.693Z,5.9
2019-03-13T03:13:01.356Z,5.8
2019-03-13T03:14:02.140Z,5.8
2019-03-13T03:15:02.776Z,5.8
2019-03-13T03:16:03.441Z,5.7
2019-03-13T03:17:04.108Z,5.7
2019-03-13T03:18:04.775Z,5.7
2019-03-13T03:19:05.443Z,5.7
2019-03-13T03:20:06.110Z,5.7
2019-03-13T03:21:06.776Z,5.6
2019-03-13T03:22:07.442Z,5.6
2019-03-13T03:23:08.116Z,5.6
2019-03-13T03:24:08.777Z,5.6
2019-03-13T03:25:09.493Z,5.5
2019-03-13T03:26:10.160Z,5.6
2019-03-13T03:27:10.826Z,5.5
2019-03-13T03:28:11.494Z,5.5
2019-03-13T03:29:12.160Z,5.5
2019-03-13T03:30:12.838Z,5.5
2019-03-13T03:31:13.493Z,5.4
2019-03-13T03:32:14.177Z,5.4
2019-03-13T03:33:14.873Z,5.4
2019-03-13T03:34:15.523Z,5.4
2019-03-13T03:35:16.295Z,5.4
2019-03-13T03:36:16.952Z,5.4
2019-03-13T03:37:17.667Z,5.5
2019-03-13T03:38:18.326Z,5.4
2019-03-13T03:39:19.111Z,5.5
2019-03-13T03:40:22.311Z,5.5
2019-03-13T03:41:21.401Z,5.6
2019-03-13T03:42:22.182Z,5.6
2019-03-13T03:43:38.869Z,5.6
2019-03-13T03:44:24.449Z,5.8
2019-03-13T03:45:25.102Z,5.8
2019-03-13T03:46:25.767Z,5.8
2019-03-13T03:47:26.436Z,5.9
2019-03-13T03:48:27.102Z,5.8
2019-03-13T03:49:27.779Z,5.8
2019-03-13T03:50:28.473Z,5.9
2019-03-13T03:51:29.151Z,5.9
2019-03-13T03:52:29.820Z,5.9
2019-03-13T03:53:30.651Z,5.9
2019-03-13T03:54:31.282Z,5.8
2019-03-13T03:55:32.046Z,5.9
2019-03-13T03:56:32.664Z,5.9
2019-03-13T03:57:33.327Z,5.9
2019-03-13T03:58:33.994Z,6.0
2019-03-13T03:59:34.744Z,5.8
2019-03-13T04:00:35.409Z,5.9
2019-03-13T04:01:36.077Z,5.9
2019-03-13T04:02:36.746Z,5.8
2019-03-13T04:03:37.415Z,5.8
2019-03-13T04:04:38.076Z,5.8
2019-03-13T04:05:38.744Z,5.8
2019-03-13T04:06:39.456Z,5.8
2019-03-13T04:07:40.128Z,5.8
2019-03-13T04:08:40.791Z,5.9
2019-03-13T04:09:41.458Z,5.7
2019-03-13T04:10:42.124Z,5.8
2019-03-13T04:11:42.790Z,5.7
2019-03-13T04:12:43.468Z,5.6
2019-03-13T04:13:45.151Z,5.5
2019-03-13T04:14:45.831Z,5.4
2019-03-13T04:15:46.499Z,5.2
2019-03-13T04:16:47.163Z,5.2
2019-03-13T04:17:47.833Z,5.1
2019-03-13T04:18:48.547Z,5.1
2019-03-13T04:19:49.215Z,5.0
2019-03-13T04:20:49.883Z,4.9
2019-03-13T04:21:50.549Z,4.9
2019-03-13T04:22:51.217Z,4.9
2019-03-13T04:23:51.885Z,4.9
2019-03-13T04:24:52.553Z,4.8
2019-03-13T04:25:53.219Z,4.8
2019-03-13T04:26:53.887Z,4.7
2019-03-13T04:27:54.555Z,4.8
2019-03-13T04:28:55.223Z,4.8
2019-03-13T04:29:55.890Z,4.6
2019-03-13T04:30:56.566Z,4.6
2019-03-13T04:31:57.273Z,4.6
2019-03-13T04:32:57.943Z,4.6
2019-03-13T04:33:58.659Z,4.5
2019-03-13T04:34:59.326Z,4.5
2019-03-13T04:36:00.011Z,4.6
2019-03-13T04:37:00.713Z,4.5
2019-03-13T04:38:01.377Z,4.4
2019-03-13T04:39:02.044Z,4.5
2019-03-13T04:40:02.712Z,4.5
2019-03-13T04:41:03.381Z,4.5
2019-03-13T04:42:04.047Z,4.5
2019-03-13T04:43:04.713Z,4.5
2019-03-13T04:44:05.382Z,4.4
2019-03-13T04:45:06.094Z,4.5
2019-03-13T04:46:06.760Z,4.4
2019-03-13T04:47:07.426Z,4.6
2019-03-13T04:48:08.094Z,4.6
2019-03-13T04:49:08.761Z,4.6
2019-03-13T04:50:09.428Z,4.7
2019-03-13T04:51:10.095Z,4.6
2019-03-13T04:52:10.809Z,4.6
2019-03-13T04:53:11.475Z,4.6
2019-03-13T04:54:12.142Z,4.6
2019-03-13T04:55:12.811Z,4.6
2019-03-13T04:56:13.475Z,4.6
2019-03-13T04:57:14.140Z,4.5
2019-03-13T04:58:14.808Z,4.5
2019-03-13T04:59:15.476Z,4.5
2019-03-13T05:00:16.142Z,4.5
2019-03-13T05:01:16.808Z,4.6
2019-03-13T05:02:17.473Z,4.7
2019-03-13T05:03:18.141Z,4.7
2019-03-13T05:04:18.806Z,4.7
2019-03-13T05:05:19.472Z,4.7
2019-03-13T05:06:20.141Z,4.8
2019-03-13T05:07:20.804Z,4.7
2019-03-13T05:08:21.471Z,4.8
2019-03-13T05:09:22.141Z,4.7
2019-03-13T05:10:22.804Z,4.8
2019-03-13T05:11:23.477Z,4.7
2019-03-13T05:12:24.135Z,4.7
2019-03-13T05:13:24.802Z,4.7
2019-03-13T05:14:25.470Z,4.7
2019-03-13T05:15:26.136Z,4.7
2019-03-13T05:16:26.802Z,4.8
2019-03-13T05:17:27.468Z,4.6
2019-03-13T05:18:28.136Z,4.7
2019-03-13T05:19:28.805Z,4.7
2019-03-13T05:20:29.470Z,4.7
2019-03-13T05:21:30.136Z,4.7
2019-03-13T05:22:30.805Z,4.6
2019-03-13T05:23:31.472Z,4.7
2019-03-13T05:24:32.141Z,4.6
2019-03-13T05:25:32.808Z,4.7
2019-03-13T05:26:33.477Z,4.6
2019-03-13T05:27:34.190Z,4.6
2019-03-13T05:28:34.858Z,4.7
2019-03-13T05:29:35.525Z,4.8
2019-03-13T05:30:36.194Z,4.7
2019-03-13T05:31:36.910Z,4.8
2019-03-13T05:32:37.577Z,4.9
2019-03-13T05:33:38.244Z,4.9
2019-03-13T05:34:38.913Z,4.9
2019-03-13T05:35:39.582Z,5.0
2019-03-13T05:36:40.251Z,4.9
2019-03-13T05:37:40.922Z,4.9
2019-03-13T05:38:41.594Z,4.9
2019-03-13T05:39:42.307Z,4.9
2019-03-13T05:40:42.977Z,4.9
2019-03-13T05:41:43.645Z,5.0
2019-03-13T05:42:44.313Z,5.0
2019-03-13T05:43:44.981Z,5.0
2019-03-13T05:44:45.652Z,5.1
2019-03-13T05:45:46.322Z,5.1
2019-03-13T05:46:46.990Z,5.1
2019-03-13T05:47:47.660Z,5.1
2019-03-13T05:48:48.344Z,5.2
2019-03-13T05:49:49.048Z,5.1
2019-03-13T05:50:49.718Z,5.1
2019-03-13T05:51:50.387Z,5.2
2019-03-13T05:52:51.057Z,5.1
2019-03-13T05:53:51.774Z,5.2
2019-03-13T05:54:52.444Z,5.2
2019-03-13T05:55:53.116Z,5.2
2019-03-13T05:56:53.784Z,5.3
2019-03-13T05:57:54.453Z,5.3
2019-03-13T05:58:55.127Z,5.4
2019-03-13T05:59:55.793Z,5.4
2019-03-13T06:00:56.463Z,5.4
2019-03-13T06:01:57.132Z,5.4
2019-03-13T06:02:57.804Z,5.4
2019-03-13T06:03:58.474Z,5.5
2019-03-13T06:04:59.145Z,5.5
2019-03-13T06:05:59.813Z,5.5
2019-03-13T06:07:00.486Z,5.5
2019-03-13T06:08:01.158Z,5.5
2019-03-13T06:09:01.827Z,5.6
2019-03-13T06:10:02.551Z,5.5
2019-03-13T06:11:03.248Z,5.6
2019-03-13T06:12:03.947Z,5.6
2019-03-13T06:13:04.604Z,5.6
2019-03-13T06:14:05.309Z,5.7
2019-03-13T06:15:05.982Z,5.7
2019-03-13T06:16:06.650Z,5.7
2019-03-13T06:17:07.323Z,5.7
2019-03-13T06:18:09.762Z,5.6
2019-03-13T06:19:09.663Z,5.7
2019-03-13T06:20:10.812Z,5.7
2019-03-13T06:21:11.519Z,5.7
2019-03-13T06:22:12.195Z,5.7
2019-03-13T06:23:12.863Z,5.7
2019-03-13T06:24:13.534Z,5.9
2019-03-13T06:25:14.206Z,6.0
2019-03-13T06:26:14.879Z,6.0
2019-03-13T06:27:15.548Z,6.1
2019-03-13T06:28:16.223Z,6.2
2019-03-13T06:29:16.892Z,6.2
2019-03-13T06:30:17.563Z,6.4
2019-03-13T06:31:18.282Z,6.4
2019-03-13T06:32:18.952Z,6.5
2019-03-13T06:33:19.623Z,6.6
2019-03-13T06:34:20.303Z,6.6
2019-03-13T06:35:23.666Z,6.6
2019-03-13T06:36:22.714Z,6.6
2019-03-13T06:37:23.400Z,6.7
2019-03-13T06:38:24.069Z,6.8
2019-03-13T06:39:24.743Z,6.8
2019-03-13T06:40:25.464Z,6.8
2019-03-13T06:41:26.136Z,6.8
2019-03-13T06:42:26.808Z,6.9
2019-03-13T06:43:27.479Z,6.8
2019-03-13T06:44:28.151Z,6.9
2019-03-13T06:45:28.825Z,6.9
2019-03-13T06:46:29.546Z,6.9
2019-03-13T06:47:30.220Z,6.9
2019-03-13T06:48:30.940Z,6.9
2019-03-13T06:49:31.615Z,6.9
2019-03-13T06:50:32.336Z,7.1
2019-03-13T06:51:33.008Z,7.1
2019-03-13T06:52:33.682Z,7.2
2019-03-13T06:53:34.354Z,7.2
2019-03-13T06:54:35.026Z,7.3
2019-03-13T06:55:35.698Z,7.2
2019-03-13T06:56:36.371Z,7.3
2019-03-13T06:57:37.045Z,7.4
2019-03-13T06:58:37.717Z,7.4
2019-03-13T06:59:38.389Z,7.4
2019-03-13T07:00:39.063Z,7.4
2019-03-13T07:01:39.737Z,7.4
2019-03-13T07:02:40.411Z,7.4
2019-03-13T07:03:41.085Z,7.4
2019-03-13T07:04:41.758Z,7.5
2019-03-13T07:05:42.432Z,7.5
2019-03-13T07:06:43.104Z,7.5
2019-03-13T07:07:43.777Z,7.4
2019-03-13T07:08:44.449Z,7.4
2019-03-13T07:09:45.125Z,7.4
2019-03-13T07:10:45.795Z,7.4
2019-03-13T07:11:46.467Z,7.4
2019-03-13T07:12:47.142Z,7.4
2019-03-13T07:13:47.815Z,7.5
2019-03-13T07:14:48.490Z,7.6
2019-03-13T07:15:49.211Z,7.7
2019-03-13T07:16:49.886Z,7.7
2019-03-13T07:17:50.559Z,7.7
2019-03-13T07:18:51.233Z,7.6
2019-03-13T07:19:51.907Z,7.8
2019-03-13T07:20:52.617Z,7.7
2019-03-13T07:21:53.254Z,7.7
2019-03-13T07:22:53.928Z,7.7
2019-03-13T07:23:54.601Z,7.7
2019-03-13T07:24:55.280Z,7.7
2019-03-13T07:25:55.950Z,7.8
2019-03-13T07:26:56.624Z,7.8
2019-03-13T07:27:57.313Z,7.9
2019-03-13T07:29:11.003Z,7.9
2019-03-13T07:29:59.691Z,7.9
2019-03-13T07:31:00.411Z,8.0
2019-03-13T07:32:01.085Z,8.1
2019-03-13T07:33:01.769Z,8.0
2019-03-13T07:34:02.431Z,8.0
2019-03-13T07:35:03.109Z,7.9
2019-03-13T07:36:03.786Z,7.9
2019-03-13T07:37:04.489Z,7.8
2019-03-13T07:38:05.169Z,7.7
2019-03-13T07:39:05.882Z,7.7
2019-03-13T07:40:06.658Z,7.7
2019-03-13T07:41:07.286Z,7.8
2019-03-13T07:42:07.962Z,7.8
2019-03-13T07:43:08.633Z,7.7
2019-03-13T07:44:09.309Z,7.9
2019-03-13T07:45:09.983Z,7.9
2019-03-13T07:46:10.706Z,7.9
2019-03-13T07:47:11.380Z,8.0
2019-03-13T07:48:12.052Z,8.1
2019-03-13T07:49:12.727Z,8.0
2019-03-13T07:50:13.398Z,7.9
2019-03-13T07:51:14.072Z,7.9
2019-03-13T07:52:14.746Z,7.8
2019-03-13T07:53:15.419Z,7.8
2019-03-13T07:54:16.095Z,7.8
2019-03-13T07:55:16.764Z,7.7
2019-03-13T07:56:17.439Z,7.7
2019-03-13T07:57:18.113Z,7.8
2019-03-13T07:58:18.788Z,7.9
2019-03-13T07:59:19.463Z,7.9
2019-03-13T08:00:20.184Z,8.1
2019-03-13T08:01:20.860Z,8.2
2019-03-13T08:02:21.534Z,8.3
2019-03-13T08:03:22.206Z,8.3
2019-03-13T08:04:22.879Z,8.3
2019-03-13T08:05:23.553Z,8.3
2019-03-13T08:06:24.227Z,8.2
2019-03-13T08:07:24.958Z,8.1
2019-03-13T08:08:25.621Z,8.1
2019-03-13T08:09:26.295Z,8.1
2019-03-13T08:10:26.969Z,8.1
2019-03-13T08:11:27.643Z,8.1
2019-03-13T08:12:28.319Z,8.2
2019-03-13T08:13:28.995Z,8.3
2019-03-13T08:14:29.667Z,8.6
2019-03-13T08:15:30.341Z,8.8
2019-03-13T08:16:31.015Z,9.0
2019-03-13T08:17:31.690Z,9.3
2019-03-13T08:18:32.365Z,9.4
2019-03-13T08:19:33.038Z,9.7
2019-03-13T08:20:33.712Z,9.7
2019-03-13T08:21:34.387Z,9.9
2019-03-13T08:22:35.065Z,10.1
2019-03-13T08:23:35.738Z,10.2
2019-03-13T08:24:36.432Z,10.0
2019-03-13T08:25:37.137Z,9.9
2019-03-13T08:26:37.812Z,9.7
2019-03-13T08:27:38.488Z,9.5
2019-03-13T08:28:39.162Z,9.3
2019-03-13T08:29:39.835Z,9.1
2019-03-13T08:30:40.519Z,9.0
2019-03-13T08:31:41.205Z,8.9
2019-03-13T08:32:41.910Z,8.8
2019-03-13T08:33:42.584Z,9.1
2019-03-13T08:34:43.258Z,9.7
2019-03-13T08:35:43.934Z,10.4
2019-03-13T08:36:44.613Z,10.9
2019-03-13T08:37:45.289Z,11.5
2019-03-13T08:38:46.263Z,12.0
2019-03-13T08:39:46.938Z,12.6
2019-03-13T08:40:47.613Z,13.0
2019-03-13T08:41:48.290Z,13.5
2019-03-13T08:42:48.971Z,13.7
2019-03-13T08:43:49.643Z,13.5
2019-03-13T08:44:50.325Z,13.8
2019-03-13T08:45:50.997Z,13.8
2019-03-13T08:46:51.674Z,13.8
2019-03-13T08:47:52.350Z,14.2
2019-03-13T08:48:53.028Z,14.5
2019-03-13T08:49:53.707Z,14.6
2019-03-13T08:50:54.438Z,13.9
2019-03-13T08:51:55.102Z,14.0
2019-03-13T08:52:55.778Z,14.2
2019-03-13T08:53:56.808Z,14.3
2019-03-13T08:54:57.470Z,13.7
2019-03-13T08:55:58.147Z,13.3
2019-03-13T08:56:58.868Z,12.8
2019-03-13T08:57:59.545Z,12.6
2019-03-13T08:59:00.223Z,11.9
2019-03-13T09:00:00.903Z,11.5
2019-03-13T09:01:01.595Z,11.2
2019-03-13T09:02:02.304Z,10.8
2019-03-13T09:03:02.983Z,10.4
2019-03-13T09:04:03.662Z,10.1
2019-03-13T09:05:04.340Z,10.0
2019-03-13T09:06:05.020Z,9.7
2019-03-13T09:07:05.741Z,9.6
2019-03-13T09:08:06.465Z,9.4
2019-03-13T09:09:07.142Z,9.3
2019-03-13T09:10:07.818Z,9.3
2019-03-13T09:11:08.499Z,9.2
2019-03-13T09:12:09.526Z,9.1
2019-03-13T09:13:10.140Z,9.0
2019-03-13T09:14:10.816Z,9.0
2019-03-13T09:15:11.492Z,9.0
2019-03-13T09:16:12.168Z,9.0
2019-03-13T09:17:12.844Z,9.1
2019-03-13T09:18:13.519Z,9.1
2019-03-13T09:19:14.194Z,9.0
2019-03-13T09:20:14.876Z,9.1
2019-03-13T09:21:15.545Z,9.3
2019-03-13T09:22:16.220Z,9.4
2019-03-13T09:23:16.897Z,9.4
2019-03-13T09:24:17.571Z,9.5
2019-03-13T09:25:18.249Z,9.5
2019-03-13T09:26:18.926Z,9.6
2019-03-13T09:27:19.632Z,9.6
2019-03-13T09:28:20.326Z,9.5
2019-03-13T09:29:21.031Z,9.3
2019-03-13T09:30:21.677Z,9.2
2019-03-13T09:31:25.343Z,9.2
2019-03-13T09:32:24.022Z,9.1
2019-03-13T09:33:24.693Z,9.1
2019-03-13T09:34:25.368Z,9.1
2019-03-13T09:35:26.042Z,9.1
2019-03-13T09:36:26.717Z,9.0
2019-03-13T09:37:27.391Z,9.0
2019-03-13T09:38:28.109Z,8.9
2019-03-13T09:39:28.781Z,8.8
2019-03-13T09:40:29.457Z,8.9
2019-03-13T09:41:30.136Z,8.9
2019-03-13T09:42:30.810Z,8.9
2019-03-13T09:43:31.483Z,8.9
2019-03-13T09:44:32.160Z,9.0
2019-03-13T09:45:32.836Z,9.1
2019-03-13T09:46:33.523Z,9.0
2019-03-13T09:47:34.234Z,9.0
2019-03-13T09:48:35.010Z,9.0
2019-03-13T09:49:35.637Z,9.0
2019-03-13T09:50:36.311Z,9.0
2019-03-13T09:51:36.992Z,9.1
2019-03-13T09:52:37.712Z,9.1
2019-03-13T09:53:38.384Z,9.2
2019-03-13T09:54:39.063Z,9.2
2019-03-13T09:55:39.733Z,9.3
2019-03-13T09:56:40.437Z,9.5
2019-03-13T09:57:41.134Z,9.7
2019-03-13T09:58:41.808Z,9.6
2019-03-13T09:59:43.813Z,9.7
2019-03-13T10:00:44.566Z,9.8
2019-03-13T10:01:45.242Z,9.9
2019-03-13T10:02:45.917Z,9.9
2019-03-13T10:03:46.594Z,10.0
2019-03-13T10:04:47.276Z,10.0
2019-03-13T10:05:47.992Z,9.9
2019-03-13T10:06:48.669Z,9.9
2019-03-13T10:07:49.345Z,9.9
2019-03-13T10:08:50.024Z,9.9
2019-03-13T10:09:50.697Z,9.9
2019-03-13T10:10:51.372Z,9.8
2019-03-13T10:11:52.047Z,9.7
2019-03-13T10:12:52.723Z,9.8
2019-03-13T10:13:53.400Z,9.9
2019-03-13T10:14:54.077Z,10.1
2019-03-13T10:15:54.754Z,10.0
2019-03-13T10:16:55.432Z,10.2
2019-03-13T10:17:56.108Z,10.2
2019-03-13T10:18:56.789Z,10.4
2019-03-13T10:19:57.463Z,10.4
2019-03-13T10:20:58.138Z,10.5
2019-03-13T10:21:58.817Z,10.4
2019-03-13T10:22:59.493Z,10.6
2019-03-13T10:24:00.172Z,10.5
2019-03-13T10:25:00.847Z,10.6
2019-03-13T10:26:01.524Z,10.5
2019-03-13T10:27:02.204Z,10.4
2019-03-13T10:28:02.883Z,10.2
2019-03-13T10:29:03.571Z,10.2
2019-03-13T10:30:04.368Z,10.2
2019-03-13T10:31:05.002Z,10.0
2019-03-13T10:32:05.683Z,10.1
2019-03-13T10:33:06.396Z,9.9
2019-03-13T10:34:07.073Z,10.1
2019-03-13T10:35:07.752Z,10.2
2019-03-13T10:36:08.429Z,10.3
2019-03-13T10:37:09.105Z,10.4
2019-03-13T10:38:14.263Z,10.4
2019-03-13T10:39:11.497Z,10.3
2019-03-13T10:40:12.176Z,10.2
2019-03-13T10:41:12.855Z,10.1
2019-03-13T10:42:13.530Z,10.1
2019-03-13T10:43:14.206Z,10.2
2019-03-13T10:44:14.885Z,10.3
2019-03-13T10:45:15.610Z,10.4
2019-03-13T10:46:16.293Z,10.5
2019-03-13T10:47:16.965Z,10.6
2019-03-13T10:48:17.642Z,10.4
2019-03-13T10:49:18.318Z,10.4
2019-03-13T10:50:18.995Z,10.3
2019-03-13T10:51:19.672Z,10.3
2019-03-13T10:52:20.350Z,10.3
2019-03-13T10:53:21.027Z,10.4
2019-03-13T10:54:21.704Z,10.4
2019-03-13T10:55:22.381Z,10.4
2019-03-13T10:56:23.059Z,10.4
2019-03-13T10:57:23.736Z,10.3
2019-03-13T10:58:24.412Z,10.4
2019-03-13T10:59:25.092Z,10.5
2019-03-13T11:00:25.768Z,10.5
2019-03-13T11:01:26.447Z,10.6
2019-03-13T11:02:27.123Z,10.6
2019-03-13T11:03:27.800Z,10.8
2019-03-13T11:04:28.477Z,10.9
2019-03-13T11:05:29.153Z,10.8
2019-03-13T11:06:29.834Z,11.1
2019-03-13T11:07:30.559Z,11.2
2019-03-13T11:08:31.241Z,11.4
2019-03-13T11:09:31.917Z,11.2
2019-03-13T11:10:32.592Z,11.2
2019-03-13T11:11:33.269Z,11.2
2019-03-13T11:12:33.952Z,11.2
2019-03-13T11:13:34.625Z,11.1
2019-03-13T11:14:35.302Z,11.1
2019-03-13T11:15:35.984Z,11.1
2019-03-13T11:16:36.659Z,11.2
2019-03-13T11:17:37.337Z,11.3
2019-03-13T11:18:38.016Z,11.4
2019-03-13T11:19:38.694Z,11.6
2019-03-13T11:20:39.371Z,11.4
2019-03-13T11:21:40.051Z,11.3
2019-03-13T11:22:40.727Z,11.2
2019-03-13T11:23:41.407Z,11.3
2019-03-13T11:24:42.084Z,11.5
2019-03-13T11:25:42.774Z,11.4
2019-03-13T11:26:43.440Z,11.5
2019-03-13T11:27:44.118Z,11.5
2019-03-13T11:28:44.795Z,11.7
2019-03-13T11:29:45.476Z,11.7
2019-03-13T11:30:46.203Z,11.6
2019-03-13T11:31:46.884Z,11.5
2019-03-13T11:32:47.560Z,11.4
2019-03-13T11:33:48.238Z,11.5
2019-03-13T11:34:48.918Z,11.6
2019-03-13T11:35:49.597Z,11.5
2019-03-13T11:36:50.274Z,11.5
2019-03-13T11:37:50.966Z,11.3
2019-03-13T11:38:51.632Z,11.4
2019-03-13T11:39:52.309Z,11.2
2019-03-13T11:40:52.987Z,11.3
2019-03-13T11:41:53.666Z,11.3
2019-03-13T11:42:54.345Z,11.2
2019-03-13T11:43:55.055Z,10.9
2019-03-13T11:44:55.732Z,10.9
2019-03-13T11:45:56.410Z,10.8
2019-03-13T11:46:57.092Z,10.8
2019-03-13T11:47:57.767Z,11.0
2019-03-13T11:48:58.475Z,10.9
2019-03-13T11:49:59.124Z,10.8
2019-03-13T11:50:59.803Z,10.7
2019-03-13T11:52:00.529Z,10.7
2019-03-13T11:53:01.206Z,10.8
2019-03-13T11:54:01.885Z,10.9
2019-03-13T11:55:02.563Z,10.9
2019-03-13T11:56:03.241Z,10.9
2019-03-13T11:57:03.918Z,10.9
2019-03-13T11:58:04.604Z,10.9
2019-03-13T11:59:05.276Z,11.2
2019-03-13T12:00:05.952Z,11.3
2019-03-13T12:01:06.632Z,11.4
2019-03-13T12:02:07.406Z,11.4
2019-03-13T12:03:08.085Z,11.5
2019-03-13T12:04:08.770Z,11.5
2019-03-13T12:05:09.442Z,11.5
2019-03-13T12:06:10.122Z,11.5
2019-03-13T12:07:10.796Z,11.5
2019-03-13T12:08:11.476Z,11.5
2019-03-13T12:09:12.154Z,11.5
2019-03-13T12:10:12.830Z,11.6
2019-03-13T12:11:13.511Z,11.4
2019-03-13T12:12:14.191Z,11.2
2019-03-13T12:13:14.868Z,11.0
2019-03-13T12:14:15.545Z,11.0
2019-03-13T12:15:16.228Z,10.8
2019-03-13T12:16:16.900Z,10.9
2019-03-13T12:17:17.579Z,10.9
2019-03-13T12:18:18.258Z,10.9
2019-03-13T12:19:18.937Z,11.0
2019-03-13T12:20:19.613Z,10.9
2019-03-13T12:21:20.291Z,10.9
2019-03-13T12:22:20.971Z,11.0
2019-03-13T12:23:21.647Z,10.9
2019-03-13T12:24:22.372Z,10.9
2019-03-13T12:25:23.051Z,10.9
2019-03-13T12:26:23.729Z,10.8
2019-03-13T12:27:24.415Z,10.7
2019-03-13T12:28:25.085Z,10.8
2019-03-13T12:29:25.762Z,10.8
2019-03-13T12:30:26.441Z,10.8
2019-03-13T12:31:27.162Z,10.9
2019-03-13T12:32:27.851Z,10.9
2019-03-13T12:33:28.561Z,11.0
2019-03-13T12:34:29.241Z,10.8
2019-03-13T12:35:29.917Z,11.0
2019-03-13T12:36:30.601Z,11.1
2019-03-13T12:37:31.275Z,11.1
2019-03-13T12:38:31.952Z,11.1
2019-03-13T12:39:32.684Z,11.2
2019-03-13T12:40:33.357Z,11.3
2019-03-13T12:41:34.036Z,11.2
2019-03-13T12:42:34.716Z,11.2
2019-03-13T12:43:35.440Z,11.0
2019-03-13T12:44:36.116Z,10.8
2019-03-13T12:45:36.794Z,10.8
2019-03-13T12:46:37.473Z,10.8
2019-03-13T12:47:38.151Z,10.8
2019-03-13T12:48:38.831Z,10.8
2019-03-13T12:49:39.505Z,10.7
2019-03-13T12:50:40.183Z,10.6
2019-03-13T12:51:40.860Z,10.5
2019-03-13T12:52:41.539Z,10.5
2019-03-13T12:53:42.221Z,10.6
2019-03-13T12:54:42.894Z,10.6
2019-03-13T12:55:43.574Z,10.7
2019-03-13T12:56:44.255Z,10.6
2019-03-13T12:57:44.926Z,10.5
2019-03-13T12:58:45.604Z,10.6
2019-03-13T12:59:46.282Z,10.6
2019-03-13T13:00:47.012Z,10.7
2019-03-13T13:01:47.689Z,10.6
2019-03-13T13:02:48.366Z,10.7
2019-03-13T13:03:49.043Z,10.6
2019-03-13T13:04:49.720Z,10.8
2019-03-13T13:05:50.401Z,10.8
2019-03-13T13:06:51.084Z,11.0
2019-03-13T13:07:51.801Z,11.1
2019-03-13T13:08:52.483Z,11.1
2019-03-13T13:09:53.159Z,11.2
2019-03-13T13:10:53.836Z,11.4
2019-03-13T13:11:54.561Z,11.3
2019-03-13T13:12:55.238Z,11.4
2019-03-13T13:13:55.964Z,11.3
2019-03-13T13:14:56.643Z,11.2
2019-03-13T13:15:57.320Z,11.2
2019-03-13T13:16:57.997Z,11.1
2019-03-13T13:17:58.681Z,10.9
2019-03-13T13:18:59.355Z,10.8
2019-03-13T13:20:00.047Z,10.6
2019-03-13T13:21:00.710Z,10.6
2019-03-13T13:22:01.437Z,10.5
2019-03-13T13:23:02.113Z,10.4
2019-03-13T13:24:02.792Z,10.3
2019-03-13T13:25:03.470Z,10.4
2019-03-13T13:26:04.158Z,10.3
2019-03-13T13:27:04.826Z,10.3
2019-03-13T13:28:05.502Z,10.3
2019-03-13T13:29:06.178Z,10.4
2019-03-13T13:30:06.857Z,10.4
2019-03-13T13:31:07.535Z,10.4
2019-03-13T13:32:08.211Z,10.4
2019-03-13T13:33:08.890Z,10.4
2019-03-13T13:34:09.567Z,10.4
2019-03-13T13:35:10.249Z,10.5
2019-03-13T13:36:10.925Z,10.4
2019-03-13T13:37:11.601Z,10.6
2019-03-13T13:38:12.280Z,10.5
2019-03-13T13:39:12.956Z,10.6
2019-03-13T13:40:13.632Z,10.7
2019-03-13T13:41:14.310Z,10.6
2019-03-13T13:42:14.988Z,10.7
2019-03-13T13:43:15.665Z,10.7
2019-03-13T13:44:16.394Z,10.7
2019-03-13T13:45:17.070Z,10.6
2019-03-13T13:46:17.751Z,10.7
2019-03-13T13:47:18.428Z,10.5